Time;durP1;ratioP1;P1;durP2;ratioP2;P2;SDS_P1;SDS_P2;PMS_P1;PMS_P2;Temp;Humidity;BMP_temperature;BMP_pressure;BME280_temperature;BME280_humidity;BME280_pressure;Samples;Min_cycle;Max_cycle;Signal;HPM_P1;HPM_P2
2023/04/02 00:02:30;;;;;;;13.40;12.00;;;;;;;8.89;96.07;98576.56;105871;1253;71584;-77
2023/04/02 00:05:18;;;;;;;14.50;12.80;;;;;;;8.84;96.64;98574.56;105989;1251;61325;-80
2023/04/02 00:07:48;;;;;;;14.80;11.20;;;;;;;8.83;96.38;98576.25;106035;1256;61288;-77
2023/04/02 00:10:38;;;;;;;14.70;11.00;;;;;;;8.91;96.38;98574.39;105870;1251;73277;-78
2023/04/02 00:13:10;;;;;;;15.20;12.30;;;;;;;8.95;96.22;98579.73;105986;1256;71225;-76
2023/04/02 00:15:44;;;;;;;17.30;11.90;;;;;;;8.88;96.26;98583.36;106034;1256;71842;-75
2023/04/02 00:18:17;;;;;;;15.60;10.90;;;;;;;8.84;96.36;98583.80;105969;1251;62113;-75
2023/04/02 00:20:52;;;;;;;15.00;11.00;;;;;;;8.89;96.54;98583.39;106019;1256;61507;-74
2023/04/02 00:23:20;;;;;;;13.60;10.40;;;;;;;8.91;95.96;98586.00;106122;1250;74740;-74
2023/04/02 00:25:49;;;;;;;15.40;12.60;;;;;;;8.87;96.33;98589.84;105954;1256;69451;-73
2023/04/02 00:28:19;;;;;;;15.70;11.20;;;;;;;8.84;96.50;98592.04;106199;1251;73864;-74
2023/04/02 00:30:54;;;;;;;14.70;11.60;;;;;;;8.91;96.25;98594.11;106288;1252;62772;-74
2023/04/02 00:33:24;;;;;;;12.60;10.50;;;;;;;8.97;95.97;98595.81;106706;1251;60419;-78
2023/04/02 00:35:53;;;;;;;14.90;12.30;;;;;;;8.95;95.95;98594.29;106176;1253;74722;-75
2023/04/02 00:38:26;;;;;;;;;;;;;;;8.93;96.13;98595.64;105976;1250;70490;-74
2023/04/02 00:40:57;;;;;;;13.40;11.10;;;;;;;9.00;96.02;98596.02;106155;1256;72370;-78
2023/04/02 00:43:26;;;;;;;14.10;11.70;;;;;;;9.06;95.77;98592.26;106033;1252;61346;-75
2023/04/02 00:45:57;;;;;;;16.40;11.90;;;;;;;9.04;95.79;98592.36;105659;1257;60537;-75
2023/04/02 00:48:31;;;;;;;14.70;11.30;;;;;;;9.00;95.48;98598.17;106277;1250;72798;-74
2023/04/02 00:51:07;;;;;;;13.70;10.80;;;;;;;9.01;95.71;98598.75;106300;1256;70573;-76
2023/04/02 00:53:35;;;;;;;12.10;10.60;;;;;;;9.08;95.53;98598.05;106943;1252;73840;-77
2023/04/02 00:56:04;;;;;;;12.90;11.30;;;;;;;9.08;95.25;98599.45;106454;1257;60358;-77
2023/04/02 00:58:35;;;;;;;11.60;10.20;;;;;;;9.02;95.24;98599.75;105902;1253;60721;-76
2023/04/02 01:01:15;;;;;;;15.60;11.80;;;;;;;8.99;95.61;98602.52;106247;1250;74789;-77
2023/04/02 01:03:56;;;;;;;12.70;11.30;;;;;;;9.05;95.54;98602.52;106200;1256;68384;-77
2023/04/02 01:06:29;;;;;;;17.50;13.00;;;;;;;9.08;95.44;98604.83;107184;1253;72633;-75
2023/04/02 01:09:04;;;;;;;14.60;12.00;;;;;;;9.02;95.33;98606.22;106131;1251;61418;-74
2023/04/02 01:12:03;;;;;;;15.50;11.30;;;;;;;8.97;95.72;98606.83;106151;1254;61576;-77
2023/04/02 01:15:23;;;;;;;14.30;11.00;;;;;;;9.03;95.82;98603.63;106665;1251;72983;-75
2023/04/02 01:18:17;;;;;;;14.50;11.90;;;;;;;9.02;95.71;98604.56;105928;1253;69393;-74
2023/04/02 01:21:07;;;;;;;15.10;12.10;;;;;;;8.97;95.91;98605.27;106203;1251;71843;-73
2023/04/02 01:24:00;;;;;;;17.30;11.40;;;;;;;8.96;96.10;98602.90;107285;1251;61986;-71
2023/04/02 01:26:44;;;;;;;13.20;11.30;;;;;;;9.04;95.65;98605.27;106232;1251;60301;-74
2023/04/02 01:29:32;;;;;;;13.30;11.80;;;;;;;9.03;95.94;98604.81;106060;1254;72896;-74
2023/04/02 01:32:02;;;;;;;16.20;13.30;;;;;;;9.00;95.98;98605.59;106685;1250;70475;-73
2023/04/02 01:34:32;;;;;;;16.40;12.00;;;;;;;8.99;96.03;98607.48;106710;1253;73805;-74
2023/04/02 01:37:21;;;;;;;15.30;11.80;;;;;;;9.05;95.63;98606.47;106190;1253;62816;-72
2023/04/02 01:40:05;;;;;;;18.60;11.70;;;;;;;9.10;95.53;98605.25;106142;1250;61571;-75
2023/04/02 01:42:48;;;;;;;17.30;12.90;;;;;;;9.05;95.64;98609.52;106091;1255;74000;-76
2023/04/02 01:45:18;;;;;;;13.20;10.90;;;;;;;8.99;95.40;98614.19;106012;1250;70625;-77
2023/04/02 01:47:48;;;;;;;15.10;11.20;;;;;;;9.03;95.52;98612.84;106096;1251;72708;-76
2023/04/02 01:50:19;;;;;;;15.00;12.00;;;;;;;9.04;95.19;98608.29;106036;1250;61174;-77
2023/04/02 01:52:49;;;;;;;15.20;12.10;;;;;;;8.98;95.52;98613.19;106265;1252;60345;-78
2023/04/02 01:55:44;;;;;;;16.00;11.80;;;;;;;8.94;95.64;98612.84;106253;1251;73491;-77
2023/04/02 01:58:16;;;;;;;15.10;11.30;;;;;;;8.99;95.32;98609.41;106204;1253;70265;-77
2023/04/02 02:00:50;;;;;;;15.20;12.40;;;;;;;9.00;95.27;98605.70;105923;1251;71403;-75
2023/04/02 02:03:20;;;;;;;14.20;12.30;;;;;;;8.94;95.69;98609.60;106250;1253;61304;-77
2023/04/02 02:05:49;;;;;;;14.90;12.80;;;;;;;8.88;95.74;98604.73;106191;1251;60602;-77
2023/04/02 02:08:37;;;;;;;14.30;12.00;;;;;;;8.93;95.67;98612.27;106125;1253;72567;-77
2023/04/02 02:11:11;;;;;;;15.60;12.90;;;;;;;8.96;95.90;98611.87;106159;1251;69448;-77
2023/04/02 02:13:40;;;;;;;16.60;12.90;;;;;;;8.91;96.06;98610.58;105953;1253;71638;-76
2023/04/02 02:16:11;;;;;;;16.90;12.90;;;;;;;8.83;96.38;98610.68;106043;1251;61282;-73
2023/04/02 02:18:42;;;;;;;15.80;12.10;;;;;;;8.86;96.47;98609.04;106224;1253;60499;-74
2023/04/02 02:21:12;;;;;;;14.80;13.20;;;;;;;8.87;96.24;98604.90;106184;1251;72812;-77
2023/04/02 02:23:40;;;;;;;18.10;13.00;;;;;;;8.81;96.72;98609.96;106001;1250;71613;-74
2023/04/02 02:26:09;;;;;;;14.00;12.40;;;;;;;8.74;97.06;98605.11;107375;1250;72797;-74
2023/04/02 02:28:40;;;;;;;14.20;12.40;;;;;;;8.75;96.99;98606.23;106517;1251;62203;-76
2023/04/02 02:31:21;;;;;;;14.20;12.50;;;;;;;8.79;96.98;98606.64;106505;1254;60931;-74
2023/04/02 02:33:51;;;;;;;18.00;13.00;;;;;;;8.75;97.26;98605.73;106971;1251;72303;-77
2023/04/02 02:36:26;;;;;;;16.60;12.80;;;;;;;8.73;97.31;98604.53;106440;1251;71564;-74
2023/04/02 02:38:57;;;;;;;13.90;11.30;;;;;;;8.83;97.34;98603.84;106485;1253;72726;-76
2023/04/02 02:41:37;;;;;;;15.80;13.00;;;;;;;8.93;96.82;98604.85;106394;1251;61135;-74
2023/04/02 02:44:15;;;;;;;17.80;14.20;;;;;;;8.92;97.22;98607.24;105844;1256;60444;-73
2023/04/02 02:46:50;;;;;;;16.10;12.60;;;;;;;8.88;97.08;98612.45;106088;1251;73493;-77
2023/04/02 02:49:27;;;;;;;16.60;12.70;;;;;;;8.93;97.04;98610.80;106212;1253;70656;-76
2023/04/02 02:52:02;;;;;;;17.20;13.20;;;;;;;8.96;96.70;98610.97;106325;1251;72137;-75
2023/04/02 02:54:39;;;;;;;17.20;14.00;;;;;;;8.90;97.10;98611.70;105957;1251;60542;-75
2023/04/02 02:57:10;;;;;;;18.30;13.00;;;;;;;8.85;97.15;98614.02;105896;1251;60608;-73
2023/04/02 02:59:39;;;;;;;20.80;14.60;;;;;;;8.91;97.12;98615.50;105687;1253;72742;-76
2023/04/02 03:02:09;;;;;;;17.20;13.00;;;;;;;8.92;96.89;98620.30;105910;1250;71317;-76
2023/04/02 03:04:38;;;;;;;16.30;13.60;;;;;;;8.86;97.11;98618.95;106055;1251;71541;-78
2023/04/02 03:07:10;;;;;;;19.10;14.00;;;;;;;8.81;97.39;98625.13;105977;1253;63200;-76
2023/04/02 03:09:46;;;;;;;18.00;13.30;;;;;;;8.86;97.28;98624.05;105965;1251;61183;-73
2023/04/02 03:12:27;;;;;;;16.70;14.80;;;;;;;8.87;97.27;98625.52;106042;1255;74788;-77
2023/04/02 03:15:23;;;;;;;17.80;15.20;;;;;;;8.78;97.75;98628.31;105964;1254;391980;-78
2023/04/02 03:20:05;;;;;;;17.50;14.80;;;;;;;8.78;98.04;98629.63;102886;1293;600902;-76
2023/04/02 03:22:43;;;;;;;21.60;16.80;;;;;;;8.78;97.88;98632.25;106017;1257;60738;-79
2023/04/02 03:25:24;;;;;;;17.40;15.60;;;;;;;8.72;98.41;98632.58;106053;1255;61247;-77
2023/04/02 03:27:57;;;;;;;17.90;14.80;;;;;;;8.66;98.57;98633.60;106155;1258;73587;-76
2023/04/02 03:30:33;;;;;;;15.90;14.20;;;;;;;8.73;98.89;98634.63;106061;1257;72044;-77
2023/04/02 03:33:05;;;;;;;17.90;15.50;;;;;;;8.77;98.75;98637.78;105854;1257;163514;-81
2023/04/02 03:35:42;;;;;;;20.90;15.00;;;;;;;8.76;99.06;98640.20;107598;1253;60093;-77
2023/04/02 03:38:17;;;;;;;15.80;14.20;;;;;;;8.73;99.10;98641.64;107779;1256;60206;-79
2023/04/02 03:40:57;;;;;;;16.00;13.90;;;;;;;8.79;98.63;98638.98;106319;1259;72250;-77
2023/04/02 03:43:45;;;;;;;16.90;14.40;;;;;;;8.79;98.46;98640.61;106088;1260;70400;-78
2023/04/02 03:46:35;;;;;;;17.10;14.30;;;;;;;8.70;98.99;98646.73;106099;1254;73513;-78
2023/04/02 03:49:12;;;;;;;15.80;13.20;;;;;;;8.70;99.06;98644.85;106225;1254;60985;-76
2023/04/02 03:52:01;;;;;;;16.50;13.90;;;;;;;8.75;99.14;98648.83;106223;1258;59774;-77
2023/04/02 03:54:30;;;;;;;17.00;14.90;;;;;;;8.71;99.55;98656.92;106192;1254;72811;-77
2023/04/02 03:56:58;;;;;;;17.40;14.90;;;;;;;8.65;99.96;98653.47;106625;1253;72608;-78
2023/04/02 03:59:49;;;;;;;15.90;14.20;;;;;;;8.71;99.92;98658.17;107318;1254;72329;-78
2023/04/02 04:02:32;;;;;;;18.90;14.90;;;;;;;8.74;99.64;98657.74;105861;1262;60650;-82
2023/04/02 04:05:01;;;;;;;18.30;14.80;;;;;;;8.72;99.88;98654.90;105914;1256;59588;-80
2023/04/02 04:07:38;;;;;;;16.60;14.50;;;;;;;8.68;100.00;98661.13;105801;1254;72165;-79
2023/04/02 04:10:06;;;;;;;17.70;13.70;;;;;;;8.72;100.00;98658.04;106087;1256;70491;-83
2023/04/02 04:12:39;;;;;;;17.60;14.40;;;;;;;8.77;100.00;98660.55;105973;1262;72480;-80
2023/04/02 04:15:13;;;;;;;17.80;14.20;;;;;;;8.74;100.00;98658.23;106063;1254;61611;-80
2023/04/02 04:18:09;;;;;;;17.40;13.90;;;;;;;8.73;100.00;98664.58;106172;1256;61353;-82
2023/04/02 04:20:56;;;;;;;17.70;13.60;;;;;;;8.79;100.00;98660.37;106096;1256;73925;-80
2023/04/02 04:23:34;;;;;;;16.40;14.70;;;;;;;8.85;100.00;98669.17;106098;1256;71501;-82
2023/04/02 04:26:23;;;;;;;18.60;14.70;;;;;;;8.87;100.00;98672.43;105997;1254;73377;-82
2023/04/02 04:28:58;;;;;;;;;;;;;;;8.89;100.00;98672.58;106070;1253;62043;-77
2023/04/02 04:31:32;;;;;;;21.50;16.50;;;;;;;8.91;100.00;98674.14;106068;1259;60973;-78
2023/04/02 04:34:15;;;;;;;18.80;15.90;;;;;;;8.92;100.00;98677.00;106094;1256;73974;-80
2023/04/02 04:36:52;;;;;;;18.50;15.40;;;;;;;8.94;100.00;98676.42;106585;1258;71808;-76
2023/04/02 04:39:57;;;;;;;19.50;16.90;;;;;;;8.97;100.00;98679.53;107131;1255;73495;-81
2023/04/02 04:42:28;;;;;;;18.10;16.10;;;;;;;9.02;100.00;98685.30;106701;1256;59689;-80
2023/04/02 04:45:01;;;;;;;19.10;16.10;;;;;;;9.07;100.00;98682.83;106354;1254;59608;-81
2023/04/02 04:48:00;;;;;;;20.70;16.60;;;;;;;9.10;100.00;98685.04;107153;1259;72105;-80
2023/04/02 04:50:36;;;;;;;23.80;18.80;;;;;;;9.15;100.00;98687.45;106658;1259;69239;-80
2023/04/02 04:53:06;;;;;;;22.30;18.30;;;;;;;9.15;100.00;98689.04;106113;1259;71686;-81
2023/04/02 04:55:39;;;;;;;19.10;16.50;;;;;;;9.15;100.00;98688.02;106028;1259;61753;-81
2023/04/02 04:58:21;;;;;;;23.60;17.80;;;;;;;9.13;100.00;98688.74;106041;1259;59914;-78
2023/04/02 05:01:06;;;;;;;20.70;16.70;;;;;;;9.09;100.00;98690.11;105633;1259;73185;-75
2023/04/02 05:04:15;;;;;;;20.60;17.30;;;;;;;9.12;100.00;98692.64;105892;1260;70609;-78
2023/04/02 05:06:54;;;;;;;18.40;15.90;;;;;;;9.16;99.99;98691.41;105767;1259;74096;-78
2023/04/02 05:09:30;;;;;;;19.20;15.60;;;;;;;9.18;100.00;98692.23;106105;1257;61894;-78
2023/04/02 05:12:33;;;;;;;15.90;14.10;;;;;;;9.23;100.00;98691.11;105899;1260;61766;-78
2023/04/02 05:15:10;;;;;;;16.40;13.90;;;;;;;9.27;100.00;98694.73;105945;1259;74024;-81
2023/04/02 05:18:05;;;;;;;16.80;13.60;;;;;;;9.35;100.00;98694.76;105756;1254;70343;-78
2023/04/02 05:20:46;;;;;;;14.30;11.90;;;;;;;9.37;100.00;98693.67;105886;1255;73908;-80
2023/04/02 05:23:25;;;;;;;16.80;13.80;;;;;;;9.40;100.00;98698.77;105917;1259;60161;-77
2023/04/02 05:26:02;;;;;;;15.30;12.80;;;;;;;9.40;100.00;98699.54;106109;1257;61086;-80
2023/04/02 05:28:50;;;;;;;14.70;13.20;;;;;;;9.39;100.00;98700.64;106301;1255;72968;-80
2023/04/02 05:31:21;;;;;;;16.10;13.50;;;;;;;9.43;100.00;98699.50;108701;1253;71299;-80
2023/04/02 05:33:50;;;;;;;17.60;14.60;;;;;;;9.49;100.00;98702.66;105983;1260;72660;-79
2023/04/02 05:36:20;;;;;;;18.00;15.40;;;;;;;9.52;100.00;98701.36;106041;1254;62435;-81
2023/04/02 05:38:51;;;;;;;;;;;;;;;9.56;100.00;98701.63;108113;1254;59487;-78
2023/04/02 05:41:31;;;;;;;19.40;15.70;;;;;;;9.59;100.00;98704.77;108367;1253;73846;-80
2023/04/02 05:44:05;;;;;;;16.80;15.10;;;;;;;9.60;100.00;98704.33;106830;1254;67950;-81
2023/04/02 05:46:50;;;;;;;17.60;15.90;;;;;;;9.59;100.00;98706.20;107708;1254;71820;-79
2023/04/02 05:49:47;;;;;;;16.00;13.00;;;;;;;9.59;100.00;98709.35;106595;1259;59643;-78
2023/04/02 05:52:22;;;;;;;19.60;15.00;;;;;;;9.60;100.00;98706.95;107619;1260;59664;-73
2023/04/02 05:54:51;;;;;;;15.50;13.90;;;;;;;9.59;100.00;98708.77;106184;1255;72950;-78
2023/04/02 05:57:22;;;;;;;16.30;13.90;;;;;;;9.61;100.00;98711.24;106176;1259;70268;-76
2023/04/02 06:00:09;;;;;;;16.70;14.90;;;;;;;9.63;100.00;98713.07;106489;1255;73294;-78
2023/04/02 06:02:51;;;;;;;14.70;12.60;;;;;;;9.68;100.00;98712.66;106149;1254;61531;-77
2023/04/02 06:05:26;;;;;;;15.70;12.40;;;;;;;9.73;100.00;98719.86;106108;1260;59638;-80
2023/04/02 06:08:15;;;;;;;15.30;13.80;;;;;;;9.76;100.00;98718.50;106058;1255;71581;-78
2023/04/02 06:10:54;;;;;;;13.90;12.40;;;;;;;9.72;100.00;98723.24;106650;1256;69927;-78
2023/04/02 06:13:29;;;;;;;13.70;11.30;;;;;;;9.70;99.97;98722.98;106591;1254;71741;-80
2023/04/02 06:15:57;;;;;;;14.40;13.00;;;;;;;9.71;100.00;98724.86;106244;1259;60219;-79
2023/04/02 06:18:32;;;;;;;15.00;13.10;;;;;;;9.72;100.00;98722.95;106477;1259;59644;-76
2023/04/02 06:21:01;;;;;;;14.90;12.70;;;;;;;9.76;99.91;98722.50;106125;1257;73433;-75
2023/04/02 06:23:59;;;;;;;13.70;12.40;;;;;;;9.78;99.79;98724.37;105899;1254;70772;-78
2023/04/02 06:26:31;;;;;;;14.40;11.60;;;;;;;9.76;99.40;98724.86;106017;1257;73880;-79
2023/04/02 06:29:01;;;;;;;12.80;11.60;;;;;;;9.73;99.39;98732.96;106031;1254;59675;-75
2023/04/02 06:31:40;;;;;;;11.80;10.70;;;;;;;9.73;99.58;98732.48;106010;1259;61540;-73
2023/04/02 06:34:30;;;;;;;11.70;10.30;;;;;;;9.66;99.21;98732.96;105949;1260;72384;-75
2023/04/02 06:37:23;;;;;;;9.50;8.60;;;;;;;9.65;98.82;98735.36;105947;1259;70048;-77
2023/04/02 06:39:58;;;;;;;10.30;9.30;;;;;;;9.64;99.13;98740.17;105926;1258;70846;-76
2023/04/02 06:42:33;;;;;;;11.30;9.60;;;;;;;9.69;99.58;98742.55;105960;1253;60733;-73
2023/04/02 06:45:33;;;;;;;10.50;9.40;;;;;;;9.71;99.80;98741.83;106323;1259;60289;-75
2023/04/02 06:48:22;;;;;;;9.80;8.80;;;;;;;9.76;99.90;98745.28;107618;1259;73266;-74
2023/04/02 06:51:08;;;;;;;10.20;8.80;;;;;;;9.82;99.91;98747.54;107922;1254;69398;-76
2023/04/02 06:53:40;;;;;;;10.10;9.00;;;;;;;9.84;99.79;98746.06;107559;1254;72658;-75
2023/04/02 06:56:30;;;;;;;10.80;9.60;;;;;;;9.83;99.54;98751.91;107283;1253;60224;-75
2023/04/02 06:59:03;;;;;;;11.10;10.00;;;;;;;9.77;99.11;98751.94;107224;1254;59980;-73
2023/04/02 07:01:36;;;;;;;10.70;9.40;;;;;;;9.79;99.55;98749.85;107938;1254;72491;-77
2023/04/02 07:04:05;;;;;;;10.60;9.50;;;;;;;9.82;99.43;98751.37;108373;1255;70361;-76
2023/04/02 07:06:40;;;;;;;11.60;10.40;;;;;;;9.89;99.58;98754.95;107857;1254;71126;-77
2023/04/02 07:09:09;;;;;;;11.30;10.20;;;;;;;9.92;99.53;98756.95;108538;1254;59556;-72
2023/04/02 07:11:40;;;;;;;11.50;10.30;;;;;;;9.93;99.70;98758.84;108491;1254;60310;-73
2023/04/02 07:14:13;;;;;;;11.80;10.20;;;;;;;9.90;99.11;98760.13;108204;1255;73056;-75
2023/04/02 07:16:43;;;;;;;13.90;11.70;;;;;;;9.89;98.55;98762.89;108323;1254;70218;-75
2023/04/02 07:19:18;;;;;;;12.60;11.30;;;;;;;9.87;98.85;98766.95;107844;1255;71336;-76
2023/04/02 07:21:50;;;;;;;12.60;11.30;;;;;;;9.89;98.97;98767.77;109027;1259;61631;-75
2023/04/02 07:24:20;;;;;;;13.60;12.20;;;;;;;9.96;99.14;98770.96;109155;1254;59666;-75
2023/04/02 07:26:48;;;;;;;13.50;12.00;;;;;;;10.05;99.27;98772.44;108983;1254;71951;-73
2023/04/02 07:29:17;;;;;;;12.60;11.20;;;;;;;10.12;99.39;98778.27;108046;1253;69376;-75
2023/04/02 07:31:46;;;;;;;13.10;11.80;;;;;;;10.13;98.38;98774.77;107707;1254;73832;-74
2023/04/02 07:34:14;;;;;;;12.30;11.10;;;;;;;10.09;98.19;98778.11;108919;1254;60717;-73
2023/04/02 07:36:47;;;;;;;11.90;10.80;;;;;;;10.03;97.28;98776.75;109239;1253;60206;-74
2023/04/02 07:39:16;;;;;;;13.80;12.40;;;;;;;9.99;97.78;98776.79;109324;1254;70973;-73
2023/04/02 07:41:54;;;;;;;12.70;11.30;;;;;;;10.00;97.99;98775.58;109181;1255;68440;-73
2023/04/02 07:44:22;;;;;;;13.70;12.40;;;;;;;10.07;98.80;98771.31;109176;1254;70142;-73
2023/04/02 07:46:51;;;;;;;12.90;11.60;;;;;;;10.14;98.79;98775.56;109276;1254;62038;-73
2023/04/02 07:49:20;;;;;;;12.30;11.10;;;;;;;10.23;98.75;98775.44;108963;1254;60295;-74
2023/04/02 07:51:48;;;;;;;12.70;11.40;;;;;;;10.29;98.56;98777.42;109194;1254;71921;-72
2023/04/02 07:54:16;;;;;;;13.20;11.80;;;;;;;10.34;98.51;98777.89;107064;1254;70172;-70
2023/04/02 07:56:45;;;;;;;12.10;11.00;;;;;;;10.38;98.40;98777.93;105876;1255;71753;-70
2023/04/02 07:59:13;;;;;;;14.70;13.20;;;;;;;10.43;98.66;98781.88;105971;1255;60472;-72
2023/04/02 08:01:41;;;;;;;16.50;13.00;;;;;;;10.44;97.66;98782.61;105803;1259;60370;-71
2023/04/02 08:04:20;;;;;;;14.80;12.70;;;;;;;10.40;97.30;98782.48;105913;1257;75062;-72
2023/04/02 08:06:49;;;;;;;12.60;11.30;;;;;;;10.39;97.69;98781.13;105999;1254;69660;-71
2023/04/02 08:09:18;;;;;;;14.80;13.30;;;;;;;10.39;97.60;98784.77;105941;1254;72794;-71
2023/04/02 08:11:47;;;;;;;15.50;13.90;;;;;;;10.39;96.95;98784.92;105958;1257;60462;-72
2023/04/02 08:14:16;;;;;;;14.50;12.90;;;;;;;10.33;96.81;98783.77;105891;1257;60348;-72
2023/04/02 08:16:51;;;;;;;14.80;13.30;;;;;;;10.32;96.86;98789.10;105909;1259;74815;-72
2023/04/02 08:19:23;;;;;;;13.70;12.20;;;;;;;10.30;96.50;98790.25;106000;1254;71530;-73
2023/04/02 08:21:52;;;;;;;14.60;13.10;;;;;;;10.25;96.39;98789.27;105642;1254;73544;-73
2023/04/02 08:24:20;;;;;;;14.10;12.60;;;;;;;10.18;96.40;98787.27;106013;1257;60543;-74
2023/04/02 08:26:50;;;;;;;13.60;12.20;;;;;;;10.14;96.31;98786.29;105772;1255;60623;-73
2023/04/02 08:29:19;;;;;;;15.00;13.40;;;;;;;10.16;96.84;98785.74;105925;1256;73330;-73
2023/04/02 08:31:48;;;;;;;14.50;13.10;;;;;;;10.20;97.07;98792.31;105935;1254;71341;-73
2023/04/02 08:34:16;;;;;;;13.60;12.20;;;;;;;10.24;96.84;98791.65;105826;1254;71245;-73
2023/04/02 08:36:45;;;;;;;14.10;12.70;;;;;;;10.23;96.70;98796.48;105930;1254;60420;-74
2023/04/02 08:39:13;;;;;;;14.40;12.80;;;;;;;10.23;96.51;98795.25;105851;1259;60565;-73
2023/04/02 08:41:52;;;;;;;14.10;12.50;;;;;;;10.20;96.35;98796.44;105805;1260;72825;-74
2023/04/02 08:44:39;;;;;;;15.70;12.50;;;;;;;10.21;96.63;98801.88;105745;1260;71319;-73
2023/04/02 08:47:08;;;;;;;13.80;12.30;;;;;;;10.22;96.45;98800.73;105804;1259;73674;-73
2023/04/02 08:49:58;;;;;;;12.90;11.60;;;;;;;10.22;96.31;98801.43;105839;1254;60502;-73
2023/04/02 08:52:31;;;;;;;14.50;12.70;;;;;;;10.23;96.27;98805.40;106113;1253;60792;-73
2023/04/02 08:55:04;;;;;;;14.20;12.70;;;;;;;10.23;96.17;98804.34;105902;1254;72994;-72
2023/04/02 08:58:03;;;;;;;14.40;12.80;;;;;;;10.20;96.32;98805.39;105850;1254;70234;-72
2023/04/02 09:00:38;;;;;;;13.10;11.80;;;;;;;10.20;96.54;98807.88;106032;1257;72947;-73
2023/04/02 09:03:12;;;;;;;14.90;13.30;;;;;;;10.16;95.13;98810.61;105637;1260;60728;-73
2023/04/02 09:05:42;;;;;;;14.60;13.10;;;;;;;10.10;95.90;98812.70;105830;1257;60442;-73
2023/04/02 09:08:20;;;;;;;15.40;13.40;;;;;;;10.09;96.86;98815.88;105540;1254;73540;-72
2023/04/02 09:10:57;;;;;;;15.50;13.10;;;;;;;10.08;96.89;98810.80;105810;1257;70216;-72
2023/04/02 09:13:30;;;;;;;16.40;13.30;;;;;;;10.08;96.79;98811.32;105819;1258;72878;-73
2023/04/02 09:16:10;;;;;;;15.90;14.30;;;;;;;10.09;96.81;98814.61;105691;1254;61058;-71
2023/04/02 09:18:39;;;;;;;16.00;14.40;;;;;;;10.07;96.62;98814.76;105915;1254;61218;-73
2023/04/02 09:21:19;;;;;;;15.80;14.10;;;;;;;10.08;96.90;98819.49;105804;1259;74993;-71
2023/04/02 09:23:48;;;;;;;15.40;13.80;;;;;;;10.10;97.17;98817.27;105947;1254;71457;-72
2023/04/02 09:26:22;;;;;;;15.70;14.20;;;;;;;10.14;97.55;98818.54;105790;1254;73672;-73
2023/04/02 09:29:24;;;;;;;16.20;14.60;;;;;;;10.18;97.06;98820.88;105714;1255;60565;-74
2023/04/02 09:32:17;;;;;;;16.90;15.20;;;;;;;10.18;96.88;98818.52;105657;1261;60854;-71
2023/04/02 09:34:48;;;;;;;15.90;14.30;;;;;;;10.19;96.82;98826.00;105778;1254;75178;-70
2023/04/02 09:37:21;;;;;;;16.10;14.50;;;;;;;10.21;96.89;98821.69;105784;1254;70747;-74
2023/04/02 09:39:50;;;;;;;14.70;13.20;;;;;;;10.30;97.34;98829.11;105990;1254;73910;-72
2023/04/02 09:42:33;;;;;;;13.50;12.20;;;;;;;10.36;96.60;98828.97;105928;1253;60335;-72
2023/04/02 09:45:22;;;;;;;15.40;13.80;;;;;;;10.38;96.02;98829.44;106073;1257;60527;-74
2023/04/02 09:47:51;;;;;;;15.20;13.60;;;;;;;10.34;96.01;98833.33;105938;1257;73096;-75
2023/04/02 09:50:20;;;;;;;15.00;13.50;;;;;;;10.33;96.20;98833.05;105779;1254;71441;-79
2023/04/02 09:52:50;;;;;;;14.50;13.00;;;;;;;10.36;96.52;98837.06;106094;1257;73490;-77
2023/04/02 09:55:25;;;;;;;13.50;12.20;;;;;;;10.36;95.76;98834.04;105919;1254;61539;-79
2023/04/02 09:58:11;;;;;;;13.90;12.50;;;;;;;10.34;96.09;98836.30;106188;1254;60409;-75
2023/04/02 10:00:47;;;;;;;15.70;14.00;;;;;;;10.36;96.29;98842.45;106152;1254;73370;-78
2023/04/02 10:03:28;;;;;;;15.00;13.20;;;;;;;10.39;95.84;98844.55;106068;1254;69310;-78
2023/04/02 10:06:07;;;;;;;15.80;14.20;;;;;;;10.39;95.84;98843.23;105871;1254;73598;-72
2023/04/02 10:08:37;;;;;;;14.40;12.90;;;;;;;10.34;95.72;98844.06;105844;1259;62198;-73
2023/04/02 10:11:15;;;;;;;15.40;13.80;;;;;;;10.34;96.10;98845.31;105800;1254;60877;-73
2023/04/02 10:13:53;;;;;;;17.10;15.20;;;;;;;10.34;95.91;98846.02;105877;1254;73094;-73
2023/04/02 10:16:26;;;;;;;17.10;15.00;;;;;;;10.35;95.51;98848.77;105952;1254;69448;-71
2023/04/02 10:19:25;;;;;;;17.30;15.70;;;;;;;10.34;95.48;98848.27;105823;1257;73592;-73
2023/04/02 10:21:54;;;;;;;18.60;16.70;;;;;;;10.33;95.44;98846.30;105867;1253;60424;-73
2023/04/02 10:24:26;;;;;;;18.90;17.00;;;;;;;10.33;95.43;98847.69;105854;1254;61277;-75
2023/04/02 10:27:32;;;;;;;21.10;18.80;;;;;;;10.33;95.53;98849.56;105886;1257;72786;-75
2023/04/02 10:30:04;;;;;;;20.30;18.20;;;;;;;10.30;95.58;98852.35;105818;1254;71538;-73
2023/04/02 10:32:38;;;;;;;23.10;20.70;;;;;;;10.31;95.88;98855.46;105898;1253;73551;-74
2023/04/02 10:35:06;;;;;;;21.60;19.00;;;;;;;10.32;96.44;98858.45;105773;1258;60504;-74
2023/04/02 10:37:48;;;;;;;23.40;19.20;;;;;;;10.34;95.67;98859.29;105905;1254;60429;-72
2023/04/02 10:40:22;;;;;;;19.90;17.80;;;;;;;10.28;95.27;98866.59;105841;1253;72228;-73
2023/04/02 10:43:34;;;;;;;21.80;19.30;;;;;;;10.21;94.84;98868.80;106064;1257;71455;-73
2023/04/02 10:46:29;;;;;;;21.50;18.30;;;;;;;10.06;95.06;98870.61;105925;1253;73189;-73
2023/04/02 10:49:07;;;;;;;19.20;16.80;;;;;;;9.94;95.28;98874.00;105855;1253;61595;-73
2023/04/02 10:51:45;;;;;;;20.60;17.30;;;;;;;9.83;95.87;98879.08;105895;1254;60412;-72
2023/04/02 10:54:31;;;;;;;19.60;17.50;;;;;;;9.76;95.89;98877.45;105886;1254;71517;-75
2023/04/02 10:57:26;;;;;;;19.50;16.00;;;;;;;9.75;96.33;98878.24;105905;1254;69026;-74
2023/04/02 11:00:06;;;;;;;20.00;17.40;;;;;;;9.78;96.82;98878.91;105971;1254;73385;-75
2023/04/02 11:02:51;;;;;;;18.70;16.70;;;;;;;9.86;96.99;98879.12;105985;1254;60543;-74
2023/04/02 11:05:28;;;;;;;19.60;16.90;;;;;;;9.89;96.88;98877.41;105979;1254;61558;-74
2023/04/02 11:08:18;;;;;;;18.20;16.20;;;;;;;9.90;96.83;98878.23;105832;1259;74738;-74
2023/04/02 11:10:48;;;;;;;20.60;17.40;;;;;;;9.96;96.49;98873.38;105956;1260;71398;-72
2023/04/02 11:13:32;;;;;;;21.20;18.90;;;;;;;9.96;96.02;98875.34;105903;1260;72885;-74
2023/04/02 11:16:00;;;;;;;21.70;19.40;;;;;;;9.96;96.34;98874.94;106076;1253;61385;-73
2023/04/02 11:18:35;;;;;;;23.30;20.80;;;;;;;9.94;96.51;98877.52;106084;1253;61036;-72
2023/04/02 11:21:43;;;;;;;24.20;21.10;;;;;;;9.94;96.43;98877.76;106005;1254;74184;-71
2023/04/02 11:24:29;;;;;;;23.10;20.30;;;;;;;9.94;96.78;98879.80;105888;1256;71416;-75
2023/04/02 11:27:14;;;;;;;23.50;21.10;;;;;;;9.97;96.87;98881.84;105822;1260;72675;-73
2023/04/02 11:30:02;;;;;;;24.10;21.60;;;;;;;9.99;96.33;98884.23;105864;1255;60507;-74
2023/04/02 11:32:41;;;;;;;23.50;20.50;;;;;;;9.95;96.40;98887.36;105925;1254;60495;-75
2023/04/02 11:35:35;;;;;;;26.00;22.20;;;;;;;9.93;96.62;98883.86;106083;1254;72487;-72
2023/04/02 11:38:10;;;;;;;24.20;21.60;;;;;;;9.88;96.73;98886.45;105782;1254;69513;-72
2023/04/02 11:40:43;;;;;;;23.50;21.10;;;;;;;9.89;97.09;98890.35;106866;1254;72835;-79
2023/04/02 11:43:31;;;;;;;24.20;21.70;;;;;;;9.91;96.93;98891.84;107753;1254;60491;-79
2023/04/02 11:46:00;;;;;;;24.60;22.10;;;;;;;9.98;97.12;98892.95;109187;1253;58328;-80
2023/04/02 11:48:34;;;;;;;24.50;22.00;;;;;;;10.05;96.97;98895.89;107808;1254;73756;-80
2023/04/02 11:51:19;;;;;;;24.80;21.20;;;;;;;10.11;96.71;98895.11;107306;1254;68274;-79
2023/04/02 11:53:57;;;;;;;23.70;21.10;;;;;;;10.12;96.40;98892.15;106870;1256;73348;-81
2023/04/02 11:56:36;;;;;;;23.00;20.60;;;;;;;10.18;96.86;98890.74;106851;1254;61619;-78
2023/04/02 11:59:23;;;;;;;19.40;16.90;;;;;;;10.27;96.42;98891.83;106824;1256;60435;-79
2023/04/02 12:02:12;;;;;;;23.80;20.90;;;;;;;10.40;96.71;98890.45;107056;1254;72592;-79
2023/04/02 12:04:52;;;;;;;22.60;19.50;;;;;;;10.56;96.77;98890.94;107291;1254;70403;-79